createdAt,value
2023-05-16T00:00:42.662Z,19.40
2023-05-16T00:01:42.715Z,19.00
2023-05-16T00:02:42.815Z,18.50
2023-05-16T00:03:42.755Z,19.10
2023-05-16T00:04:42.655Z,19.10
2023-05-16T00:05:42.608Z,20.70
2023-05-16T00:06:42.627Z,19.10
2023-05-16T00:07:42.580Z,18.70
2023-05-16T00:08:42.597Z,19.80
2023-05-16T00:09:42.570Z,18.20
2023-05-16T00:10:42.554Z,19.30
2023-05-16T00:11:42.572Z,17.90
2023-05-16T00:12:42.606Z,18.40
2023-05-16T00:13:42.534Z,17.30
2023-05-16T00:14:42.510Z,16.60
2023-05-16T00:15:42.581Z,16.70
2023-05-16T00:16:42.585Z,16.90
2023-05-16T00:17:42.526Z,16.90
2023-05-16T00:18:42.507Z,19.00
2023-05-16T00:19:42.507Z,18.10
2023-05-16T00:20:42.470Z,18.70
2023-05-16T00:21:42.448Z,18.00
2023-05-16T00:22:42.428Z,17.60
2023-05-16T00:23:42.467Z,19.30
2023-05-16T00:24:42.426Z,18.60
2023-05-16T00:25:42.393Z,18.30
2023-05-16T00:26:42.402Z,18.20
2023-05-16T00:27:42.379Z,18.10
2023-05-16T00:28:42.390Z,17.60
2023-05-16T00:29:42.387Z,18.10
2023-05-16T00:30:42.342Z,18.80
2023-05-16T00:31:42.347Z,18.10
2023-05-16T00:32:43.347Z,17.20
2023-05-16T00:33:42.339Z,18.20
2023-05-16T00:34:42.328Z,18.00
2023-05-16T00:35:42.304Z,18.10
2023-05-16T00:36:42.308Z,17.90
2023-05-16T00:37:42.294Z,16.60
2023-05-16T00:38:42.316Z,16.80
2023-05-16T00:39:42.270Z,17.10
2023-05-16T00:40:42.260Z,17.50
2023-05-16T00:41:42.244Z,16.80
2023-05-16T00:42:43.259Z,16.50
2023-05-16T00:43:42.229Z,16.80
2023-05-16T00:44:42.234Z,16.20
2023-05-16T00:45:42.208Z,17.40
2023-05-16T00:46:42.339Z,17.50
2023-05-16T00:47:42.273Z,16.60
2023-05-16T00:48:42.236Z,15.90
2023-05-16T00:49:42.178Z,17.30
2023-05-16T00:50:42.155Z,15.30
2023-05-16T00:51:42.220Z,16.30
2023-05-16T00:52:42.135Z,15.60
2023-05-16T00:53:42.127Z,14.70
2023-05-16T00:54:42.145Z,15.90
2023-05-16T00:55:42.156Z,16.10
2023-05-16T00:56:42.111Z,15.00
2023-05-16T00:57:42.070Z,15.00
2023-05-16T00:58:42.089Z,14.40
2023-05-16T00:59:42.070Z,14.80
2023-05-16T01:00:42.073Z,15.10
2023-05-16T01:01:42.066Z,15.60
2023-05-16T01:02:42.100Z,15.20
2023-05-16T01:03:42.113Z,16.00
2023-05-16T01:04:42.016Z,14.40
2023-05-16T01:05:42.022Z,15.10
2023-05-16T01:06:41.985Z,14.00
2023-05-16T01:07:41.980Z,15.40
2023-05-16T01:08:41.990Z,15.50
2023-05-16T01:09:41.979Z,14.70
2023-05-16T01:10:41.963Z,15.00
2023-05-16T01:11:41.943Z,16.50
2023-05-16T01:12:41.928Z,16.40
2023-05-16T01:13:41.944Z,17.40
2023-05-16T01:14:41.919Z,17.00
2023-05-16T01:15:41.920Z,17.10
2023-05-16T01:16:41.906Z,15.90
2023-05-16T01:17:41.945Z,16.20
2023-05-16T01:18:41.939Z,16.30
2023-05-16T01:19:41.927Z,17.00
2023-05-16T01:20:41.896Z,15.90
2023-05-16T01:21:41.840Z,16.50
2023-05-16T01:22:41.853Z,16.70
2023-05-16T01:23:41.854Z,15.70
2023-05-16T01:24:41.865Z,14.80
2023-05-16T01:25:41.803Z,15.50
2023-05-16T01:26:41.796Z,16.30
2023-05-16T01:27:41.789Z,15.00
2023-05-16T01:28:41.801Z,15.10
2023-05-16T01:29:41.768Z,14.70
2023-05-16T01:30:41.755Z,15.30
2023-05-16T01:31:41.793Z,15.40
2023-05-16T01:32:41.808Z,15.70
2023-05-16T01:33:41.748Z,15.40
2023-05-16T01:34:41.719Z,16.30
2023-05-16T01:35:41.712Z,16.00
2023-05-16T01:36:41.706Z,15.70
2023-05-16T01:37:41.692Z,16.10
2023-05-16T01:38:41.668Z,15.90
2023-05-16T01:39:41.677Z,15.70
2023-05-16T01:40:41.668Z,15.50
2023-05-16T01:41:41.641Z,14.80
2023-05-16T01:42:41.655Z,15.50
2023-05-16T01:43:41.632Z,15.90
2023-05-16T01:44:41.614Z,15.30
2023-05-16T01:45:41.612Z,16.10
2023-05-16T01:46:41.614Z,15.50
2023-05-16T01:47:41.655Z,16.20
2023-05-16T01:48:41.585Z,15.30
2023-05-16T01:49:41.574Z,14.80
2023-05-16T01:50:41.553Z,14.80
2023-05-16T01:51:41.536Z,15.50
2023-05-16T01:52:41.618Z,15.70
2023-05-16T01:53:41.523Z,15.80
2023-05-16T01:54:41.512Z,15.50
2023-05-16T01:55:41.507Z,14.80
2023-05-16T01:56:41.514Z,15.00
2023-05-16T01:57:41.489Z,15.90
2023-05-16T01:58:41.465Z,15.60
2023-05-16T01:59:41.482Z,14.90
2023-05-16T02:00:41.551Z,15.50
2023-05-16T02:01:41.649Z,14.10
2023-05-16T02:02:41.471Z,15.30
2023-05-16T02:03:41.499Z,14.70
2023-05-16T02:04:41.408Z,14.00
2023-05-16T02:05:41.435Z,14.60
2023-05-16T02:06:41.394Z,14.10
2023-05-16T02:07:41.408Z,14.80
2023-05-16T02:08:41.394Z,14.20
2023-05-16T02:09:41.403Z,15.30
2023-05-16T02:10:41.344Z,15.10
2023-05-16T02:11:41.347Z,14.20
2023-05-16T02:12:41.357Z,14.20
2023-05-16T02:13:41.338Z,15.30
2023-05-16T02:14:41.371Z,14.10
2023-05-16T02:15:41.309Z,13.60
2023-05-16T02:16:41.314Z,13.90
2023-05-16T02:17:41.337Z,13.70
2023-05-16T02:18:41.321Z,13.70
2023-05-16T02:19:41.249Z,13.40
2023-05-16T02:20:41.281Z,14.00
2023-05-16T02:21:41.265Z,13.70
2023-05-16T02:22:41.238Z,13.30
2023-05-16T02:23:41.289Z,13.30
2023-05-16T02:24:41.224Z,13.60
2023-05-16T02:25:41.198Z,13.10
2023-05-16T02:26:41.193Z,12.60
2023-05-16T02:27:41.182Z,12.30
2023-05-16T02:28:41.157Z,13.00
2023-05-16T02:29:41.246Z,12.20
2023-05-16T02:30:41.180Z,13.00
2023-05-16T02:31:41.349Z,12.60
2023-05-16T02:32:41.265Z,11.70
2023-05-16T02:33:41.116Z,12.90
2023-05-16T02:34:41.130Z,12.60
2023-05-16T02:35:41.128Z,12.60
2023-05-16T02:36:41.092Z,12.60
2023-05-16T02:37:41.095Z,13.40
2023-05-16T02:38:41.073Z,12.60
2023-05-16T02:39:41.093Z,13.20
2023-05-16T02:40:41.057Z,13.20
2023-05-16T02:41:41.059Z,12.60
2023-05-16T02:42:42.028Z,12.00
2023-05-16T02:43:41.013Z,12.80
2023-05-16T02:44:41.031Z,13.80
2023-05-16T02:45:41.067Z,12.90
2023-05-16T02:46:41.072Z,12.40
2023-05-16T02:47:41.054Z,13.20
2023-05-16T02:48:40.998Z,13.60
2023-05-16T02:49:40.984Z,12.50
2023-05-16T02:50:40.948Z,12.60
2023-05-16T02:51:40.961Z,13.00
2023-05-16T02:52:40.939Z,12.70
2023-05-16T02:53:41.009Z,12.40
2023-05-16T02:54:40.909Z,13.50
2023-05-16T02:55:41.038Z,13.60
2023-05-16T02:56:40.900Z,12.50
2023-05-16T02:57:40.887Z,12.90
2023-05-16T02:58:40.872Z,13.10
2023-05-16T02:59:40.873Z,12.70
2023-05-16T03:00:40.888Z,13.10
2023-05-16T03:01:40.835Z,12.40
2023-05-16T03:02:40.877Z,12.90
2023-05-16T03:03:40.929Z,12.60
2023-05-16T03:04:40.831Z,12.70
2023-05-16T03:05:40.800Z,12.60
2023-05-16T03:06:40.777Z,12.20
2023-05-16T03:07:40.853Z,12.20
2023-05-16T03:08:40.794Z,12.60
2023-05-16T03:09:40.769Z,12.30
2023-05-16T03:10:40.768Z,11.90
2023-05-16T03:11:40.753Z,12.40
2023-05-16T03:12:40.734Z,12.00
2023-05-16T03:13:40.736Z,12.20
2023-05-16T03:14:40.700Z,12.00
2023-05-16T03:15:40.701Z,11.70
2023-05-16T03:16:40.734Z,11.70
2023-05-16T03:17:40.742Z,12.40
2023-05-16T03:18:40.702Z,11.60
2023-05-16T03:19:40.659Z,12.30
2023-05-16T03:20:40.656Z,12.20
2023-05-16T03:21:40.652Z,12.00
2023-05-16T03:22:40.722Z,12.60
2023-05-16T03:23:40.621Z,12.90
2023-05-16T03:24:40.642Z,11.80
2023-05-16T03:25:40.598Z,13.00
2023-05-16T03:26:40.587Z,12.40
2023-05-16T03:27:40.580Z,12.40
2023-05-16T03:28:40.568Z,13.10
2023-05-16T03:29:40.549Z,12.00
2023-05-16T03:30:41.577Z,12.80
2023-05-16T03:31:40.652Z,12.90
2023-05-16T03:32:40.569Z,13.80
2023-05-16T03:33:40.546Z,13.10
2023-05-16T03:34:40.507Z,13.30
2023-05-16T03:35:40.548Z,12.60
2023-05-16T03:36:40.497Z,13.00
2023-05-16T03:37:40.488Z,12.70
2023-05-16T03:38:40.482Z,12.30
2023-05-16T03:39:40.478Z,11.90
2023-05-16T03:40:40.468Z,12.40
2023-05-16T03:41:40.446Z,11.90
2023-05-16T03:42:40.428Z,12.00
2023-05-16T03:43:40.435Z,11.70
2023-05-16T03:44:40.440Z,11.20
2023-05-16T03:45:40.505Z,11.60
2023-05-16T03:46:40.402Z,11.80
2023-05-16T03:47:40.444Z,11.10
2023-05-16T03:48:40.384Z,11.50
2023-05-16T03:49:40.384Z,12.50
2023-05-16T03:50:41.143Z,11.40
2023-05-16T03:51:41.366Z,11.30
2023-05-16T03:52:40.341Z,11.40
2023-05-16T03:53:40.339Z,12.30
2023-05-16T03:54:41.365Z,11.90
2023-05-16T03:55:40.312Z,12.10
2023-05-16T03:56:40.302Z,11.60
2023-05-16T03:57:40.330Z,12.00
2023-05-16T03:58:40.281Z,11.80
2023-05-16T03:59:40.309Z,12.40
2023-05-16T04:00:40.264Z,11.80
2023-05-16T04:01:40.289Z,12.10
2023-05-16T04:02:40.390Z,12.80
2023-05-16T04:03:40.236Z,12.20
2023-05-16T04:04:40.223Z,12.50
2023-05-16T04:05:40.276Z,12.00
2023-05-16T04:06:40.202Z,11.80
2023-05-16T04:07:40.197Z,13.00
2023-05-16T04:08:40.171Z,12.70
2023-05-16T04:09:40.197Z,12.30
2023-05-16T04:10:40.174Z,12.60
2023-05-16T04:11:40.147Z,12.10
2023-05-16T04:12:41.146Z,12.20
2023-05-16T04:13:40.179Z,12.00
2023-05-16T04:14:40.117Z,11.50
2023-05-16T04:15:40.131Z,12.40
2023-05-16T04:16:40.120Z,12.30
2023-05-16T04:17:40.184Z,11.60
2023-05-16T04:18:40.119Z,13.30
2023-05-16T04:19:40.081Z,13.90
2023-05-16T04:20:40.057Z,12.20
2023-05-16T04:21:40.035Z,12.70
2023-05-16T04:22:40.140Z,13.20
2023-05-16T04:23:40.037Z,12.00
2023-05-16T04:24:40.024Z,13.30
2023-05-16T04:25:40.007Z,13.40
2023-05-16T04:26:40.006Z,13.30
2023-05-16T04:27:39.992Z,13.10
2023-05-16T04:28:39.992Z,13.20
2023-05-16T04:29:39.982Z,12.90
2023-05-16T04:30:39.966Z,13.00
2023-05-16T04:31:40.023Z,12.50
2023-05-16T04:32:39.953Z,12.80
2023-05-16T04:33:39.928Z,12.80
2023-05-16T04:34:40.563Z,12.70
2023-05-16T04:35:40.923Z,12.90
2023-05-16T04:36:39.890Z,13.10
2023-05-16T04:37:39.921Z,13.30
2023-05-16T04:38:39.890Z,13.30
2023-05-16T04:39:39.895Z,12.60
2023-05-16T04:40:39.867Z,12.40
2023-05-16T04:41:39.873Z,12.20
2023-05-16T04:42:39.846Z,12.40
2023-05-16T04:43:39.835Z,13.10
2023-05-16T04:44:39.829Z,12.00
2023-05-16T04:46:11.775Z,11.20
2023-05-16T04:46:39.863Z,12.50
2023-05-16T04:47:39.896Z,11.30
2023-05-16T04:48:39.798Z,11.50
2023-05-16T04:49:39.787Z,11.20
2023-05-16T04:50:39.778Z,12.20
2023-05-16T04:51:39.775Z,11.60
2023-05-16T04:52:39.803Z,11.10
2023-05-16T04:53:39.746Z,11.20
2023-05-16T04:54:39.778Z,11.60
2023-05-16T04:55:39.737Z,11.00
2023-05-16T04:56:39.732Z,10.50
2023-05-16T04:57:39.813Z,11.40
2023-05-16T04:58:42.276Z,10.40
2023-05-16T04:59:39.715Z,10.90
2023-05-16T05:00:40.673Z,11.40
2023-05-16T05:01:39.834Z,11.00
2023-05-16T05:02:39.739Z,10.90
2023-05-16T05:03:39.647Z,9.50
2023-05-16T05:04:39.730Z,11.50
2023-05-16T05:05:39.672Z,10.80
2023-05-16T05:06:39.617Z,10.40
2023-05-16T05:07:39.612Z,10.10
2023-05-16T05:08:39.601Z,10.10
2023-05-16T05:09:39.600Z,10.00
2023-05-16T05:10:39.613Z,10.30
2023-05-16T05:11:39.607Z,10.80
2023-05-16T05:12:39.574Z,10.10
2023-05-16T05:13:39.560Z,9.40
2023-05-16T05:14:39.585Z,10.50
2023-05-16T05:15:39.549Z,9.50
2023-05-16T05:16:39.563Z,10.60
2023-05-16T05:17:39.565Z,9.00
2023-05-16T05:18:39.600Z,8.90
2023-05-16T05:19:39.598Z,7.90
2023-05-16T05:20:39.472Z,8.70
2023-05-16T05:21:39.482Z,8.60
2023-05-16T05:22:39.470Z,8.40
2023-05-16T05:23:39.464Z,9.10
2023-05-16T05:24:39.433Z,8.30
2023-05-16T05:25:39.447Z,8.70
2023-05-16T05:26:39.430Z,8.20
2023-05-16T05:27:39.436Z,9.80
2023-05-16T05:28:39.961Z,9.40
2023-05-16T05:29:39.389Z,8.50
2023-05-16T05:30:41.232Z,9.20
2023-05-16T05:31:39.494Z,8.30
2023-05-16T05:32:39.444Z,7.70
2023-05-16T05:33:39.353Z,8.30
2023-05-16T05:34:39.404Z,8.30
2023-05-16T05:35:39.353Z,7.40
2023-05-16T05:36:39.344Z,7.40
2023-05-16T05:37:39.308Z,7.40
2023-05-16T05:38:39.289Z,7.20
2023-05-16T05:39:39.333Z,6.70
2023-05-16T05:40:39.273Z,6.90
2023-05-16T05:41:39.283Z,7.30
2023-05-16T05:42:39.262Z,6.60
2023-05-16T05:43:39.242Z,6.90
2023-05-16T05:44:39.235Z,7.00
2023-05-16T05:45:39.304Z,7.50
2023-05-16T05:46:39.229Z,6.90
2023-05-16T05:47:39.267Z,7.10
2023-05-16T05:48:39.227Z,6.40
2023-05-16T05:49:39.184Z,6.70
2023-05-16T05:50:39.220Z,6.80
2023-05-16T05:51:39.172Z,7.10
2023-05-16T05:52:39.156Z,7.20
2023-05-16T05:53:40.134Z,7.00
2023-05-16T05:54:39.162Z,6.70
2023-05-16T05:55:39.157Z,7.10
2023-05-16T05:56:40.118Z,7.30
2023-05-16T05:57:39.124Z,7.30
2023-05-16T05:58:39.105Z,6.70
2023-05-16T05:59:39.102Z,7.00
2023-05-16T06:00:39.089Z,6.90
2023-05-16T06:01:39.097Z,6.50
2023-05-16T06:02:39.176Z,6.90
2023-05-16T06:03:39.105Z,6.50
2023-05-16T06:04:39.035Z,6.90
2023-05-16T06:05:39.069Z,7.10
2023-05-16T06:06:39.001Z,6.00
2023-05-16T06:07:39.048Z,6.40
2023-05-16T06:08:39.020Z,6.40
2023-05-16T06:09:38.998Z,6.30
2023-05-16T06:10:38.971Z,5.90
2023-05-16T06:11:38.963Z,6.20
2023-05-16T06:12:38.956Z,6.70
2023-05-16T06:13:38.964Z,6.70
2023-05-16T06:14:38.968Z,6.70
2023-05-16T06:15:38.925Z,6.50
2023-05-16T06:16:38.953Z,6.10
2023-05-16T06:17:38.991Z,6.20
2023-05-16T06:18:38.938Z,6.20
2023-05-16T06:19:38.927Z,7.00
2023-05-16T06:20:38.931Z,6.70
2023-05-16T06:21:38.876Z,6.80
2023-05-16T06:22:38.849Z,6.20
2023-05-16T06:23:39.847Z,6.30
2023-05-16T06:24:38.874Z,6.80
2023-05-16T06:25:38.839Z,6.40
2023-05-16T06:26:38.835Z,6.00
2023-05-16T06:27:38.857Z,6.10
2023-05-16T06:28:38.824Z,6.60
2023-05-16T06:29:38.792Z,6.70
2023-05-16T06:30:38.813Z,5.70
2023-05-16T06:31:38.804Z,6.00
2023-05-16T06:32:38.784Z,5.90
2023-05-16T06:33:38.775Z,5.90
2023-05-16T06:34:38.772Z,5.70
2023-05-16T06:35:38.750Z,5.60
2023-05-16T06:36:38.752Z,4.30
2023-05-16T06:37:39.618Z,4.30
2023-05-16T06:38:38.739Z,4.30
2023-05-16T06:39:38.702Z,5.50
2023-05-16T06:40:38.746Z,4.80
2023-05-16T06:41:38.682Z,4.70
2023-05-16T06:42:38.877Z,4.80
2023-05-16T06:43:38.706Z,4.10
2023-05-16T06:44:38.662Z,4.20
2023-05-16T06:45:38.666Z,3.90
2023-05-16T06:46:38.692Z,4.20
2023-05-16T06:47:38.706Z,3.20
2023-05-16T06:48:39.619Z,3.50
2023-05-16T06:49:38.635Z,3.10
2023-05-16T06:50:38.638Z,3.50
2023-05-16T06:51:38.569Z,2.80
2023-05-16T06:52:38.602Z,3.30
2023-05-16T06:53:38.565Z,3.30
2023-05-16T06:54:38.555Z,3.10
2023-05-16T06:55:38.528Z,3.20
2023-05-16T06:56:38.567Z,3.00
2023-05-16T06:57:38.557Z,3.10
2023-05-16T06:58:38.506Z,3.50
2023-05-16T06:59:38.503Z,3.30
2023-05-16T07:00:38.511Z,3.10
2023-05-16T07:01:38.519Z,2.90
2023-05-16T07:02:38.585Z,2.90
2023-05-16T07:03:39.540Z,2.50
2023-05-16T07:04:39.492Z,2.40
2023-05-16T07:05:38.445Z,2.10
2023-05-16T07:06:38.468Z,1.80
2023-05-16T07:07:38.430Z,2.10
2023-05-16T07:08:38.466Z,2.00
2023-05-16T07:09:38.432Z,2.00
2023-05-16T07:10:38.393Z,1.90
2023-05-16T07:11:38.423Z,2.20
2023-05-16T07:12:38.448Z,2.00
2023-05-16T07:13:38.393Z,1.70
2023-05-16T07:14:38.364Z,1.60
2023-05-16T07:15:38.355Z,1.30
2023-05-16T07:16:38.394Z,1.70
2023-05-16T07:17:38.368Z,1.70
2023-05-16T07:18:38.348Z,1.50
2023-05-16T07:19:38.315Z,1.40
2023-05-16T07:20:38.346Z,1.20
2023-05-16T07:21:38.317Z,1.70
2023-05-16T07:22:38.300Z,1.40
2023-05-16T07:23:38.303Z,1.20
2023-05-16T07:24:38.304Z,1.10
2023-05-16T07:25:38.288Z,1.30
2023-05-16T07:26:38.252Z,1.00
2023-05-16T07:27:38.271Z,1.00
2023-05-16T07:28:38.250Z,0.90
2023-05-16T07:29:38.210Z,1.00
2023-05-16T07:30:38.253Z,0.80
2023-05-16T07:31:38.230Z,0.80
2023-05-16T07:32:38.274Z,1.10
2023-05-16T07:33:38.184Z,0.70
2023-05-16T07:34:38.168Z,1.20
2023-05-16T07:35:38.187Z,0.60
2023-05-16T07:36:38.212Z,0.80
2023-05-16T07:37:38.121Z,0.80
2023-05-16T07:38:38.122Z,0.80
2023-05-16T07:39:38.132Z,0.90
2023-05-16T07:40:38.123Z,0.70
2023-05-16T07:41:38.105Z,0.80
2023-05-16T07:42:38.086Z,0.60
2023-05-16T07:43:38.158Z,0.90
2023-05-16T07:44:38.140Z,1.00
2023-05-16T07:45:38.101Z,0.50
2023-05-16T07:46:38.149Z,0.70
2023-05-16T07:47:38.262Z,0.60
2023-05-16T07:48:38.057Z,0.80
2023-05-16T07:49:38.042Z,0.80
2023-05-16T07:50:38.006Z,0.90
2023-05-16T07:51:37.988Z,0.80
2023-05-16T07:52:38.093Z,0.90
2023-05-16T07:53:37.978Z,1.00
2023-05-16T07:54:37.968Z,0.70
2023-05-16T07:55:37.972Z,1.40
2023-05-16T07:56:37.980Z,1.00
2023-05-16T07:57:37.993Z,0.80
2023-05-16T07:58:37.920Z,0.80
2023-05-16T07:59:38.073Z,1.00
2023-05-16T08:00:37.925Z,1.20
2023-05-16T08:01:37.949Z,0.90
2023-05-16T08:02:38.005Z,1.00
2023-05-16T08:03:38.278Z,1.10
2023-05-16T08:04:38.825Z,0.90
2023-05-16T08:05:37.923Z,0.90
2023-05-16T08:06:37.872Z,0.90
2023-05-16T08:07:37.869Z,1.00
2023-05-16T08:08:37.836Z,1.00
2023-05-16T08:09:37.844Z,1.40
2023-05-16T08:10:37.830Z,0.90
2023-05-16T08:11:37.793Z,1.10
2023-05-16T08:12:37.791Z,1.40
2023-05-16T08:13:37.809Z,1.10
2023-05-16T08:14:37.783Z,1.20
2023-05-16T08:15:37.817Z,1.20
2023-05-16T08:16:37.840Z,1.00
2023-05-16T08:17:37.753Z,1.50
2023-05-16T08:18:37.817Z,1.00
2023-05-16T08:19:37.766Z,1.20
2023-05-16T08:20:37.710Z,1.30
2023-05-16T08:21:37.703Z,1.10
2023-05-16T08:22:37.720Z,1.00
2023-05-16T08:23:37.667Z,0.80
2023-05-16T08:24:37.711Z,1.30
2023-05-16T08:25:37.685Z,1.10
2023-05-16T08:26:37.683Z,1.10
2023-05-16T08:27:37.663Z,1.10
2023-05-16T08:28:37.654Z,1.50
2023-05-16T08:29:37.673Z,1.80
2023-05-16T08:30:37.619Z,1.40
2023-05-16T08:31:37.675Z,1.70
2023-05-16T08:32:37.627Z,1.30
2023-05-16T08:33:37.632Z,1.30
2023-05-16T08:34:37.571Z,1.50
2023-05-16T08:35:37.557Z,1.50
2023-05-16T08:36:37.552Z,1.20
2023-05-16T08:37:37.548Z,1.70
2023-05-16T08:38:37.537Z,1.60
2023-05-16T08:39:37.510Z,1.50
2023-05-16T08:40:37.568Z,1.50
2023-05-16T08:41:37.548Z,1.30
2023-05-16T08:42:37.514Z,1.40
2023-05-16T08:43:37.466Z,1.40
2023-05-16T08:44:37.505Z,1.50
2023-05-16T08:45:37.469Z,1.50
2023-05-16T08:46:37.489Z,1.30
2023-05-16T08:47:37.587Z,1.70
2023-05-16T08:48:37.439Z,1.40
2023-05-16T08:49:37.504Z,1.60
2023-05-16T08:50:37.437Z,1.60
2023-05-16T08:51:37.417Z,1.50
2023-05-16T08:52:37.390Z,1.60
2023-05-16T08:53:37.391Z,1.80
2023-05-16T08:54:37.373Z,1.70
2023-05-16T08:55:37.360Z,1.60
2023-05-16T08:56:37.349Z,1.50
2023-05-16T08:57:37.365Z,1.50
2023-05-16T08:58:37.333Z,2.00
2023-05-16T08:59:37.323Z,1.60
2023-05-16T09:00:37.379Z,1.70
2023-05-16T09:01:37.544Z,1.40
2023-05-16T09:02:37.369Z,1.50
2023-05-16T09:03:37.350Z,1.60
2023-05-16T09:04:37.293Z,1.70
2023-05-16T09:05:37.314Z,1.50
2023-05-16T09:06:37.264Z,1.50
2023-05-16T09:07:37.278Z,1.40
2023-05-16T09:08:37.250Z,1.70
2023-05-16T09:09:37.207Z,1.60
2023-05-16T09:10:37.248Z,1.50
2023-05-16T09:11:37.336Z,1.40
2023-05-16T09:12:37.196Z,1.20
2023-05-16T09:13:37.187Z,1.50
2023-05-16T09:14:37.167Z,2.00
2023-05-16T09:15:37.206Z,1.90
2023-05-16T09:16:37.194Z,1.70
2023-05-16T09:17:40.200Z,1.60
2023-05-16T09:18:38.242Z,1.40
2023-05-16T09:19:37.274Z,1.40
2023-05-16T09:20:37.099Z,1.50
2023-05-16T09:21:37.100Z,1.20
2023-05-16T09:22:37.799Z,1.50
2023-05-16T09:23:37.506Z,2.10
2023-05-16T09:24:38.091Z,1.50
2023-05-16T09:25:37.386Z,1.70
2023-05-16T09:26:37.054Z,1.50
2023-05-16T09:27:37.044Z,1.80
2023-05-16T09:28:37.067Z,1.40
2023-05-16T09:29:41.858Z,1.50
2023-05-16T09:30:37.003Z,1.60
2023-05-16T09:31:37.074Z,1.30
2023-05-16T09:32:36.993Z,1.40
2023-05-16T09:33:36.978Z,1.30
2023-05-16T09:34:36.948Z,1.30
2023-05-16T09:35:44.253Z,1.40
2023-05-16T09:36:39.717Z,1.40
2023-05-16T09:37:36.932Z,1.60
2023-05-16T09:38:36.897Z,1.60
2023-05-16T09:39:36.895Z,1.50
2023-05-16T09:40:36.924Z,1.50
2023-05-16T09:41:36.881Z,2.10
2023-05-16T09:42:36.895Z,1.40
2023-05-16T09:43:38.239Z,1.80
2023-05-16T09:44:37.841Z,1.70
2023-05-16T09:45:37.041Z,1.80
2023-05-16T09:46:36.856Z,1.50
2023-05-16T09:47:36.843Z,1.90
2023-05-16T09:48:36.799Z,2.20
2023-05-16T09:49:36.793Z,1.60
2023-05-16T09:50:36.896Z,1.50
2023-05-16T09:51:36.793Z,1.50
2023-05-16T09:52:36.787Z,1.80
2023-05-16T09:53:36.785Z,1.70
2023-05-16T09:54:36.747Z,1.50
2023-05-16T09:55:36.735Z,1.40
2023-05-16T09:56:36.718Z,1.60
2023-05-16T09:57:36.729Z,1.90
2023-05-16T09:58:36.719Z,1.40
2023-05-16T09:59:36.688Z,1.60
2023-05-16T10:00:36.672Z,1.30
2023-05-16T10:01:36.755Z,1.40
2023-05-16T10:02:36.797Z,1.50
2023-05-16T10:03:36.793Z,1.40
2023-05-16T10:04:36.634Z,1.40
2023-05-16T10:05:36.661Z,1.50
2023-05-16T10:06:36.662Z,1.70
2023-05-16T10:07:36.617Z,1.80
2023-05-16T10:08:36.631Z,1.20
2023-05-16T10:09:36.582Z,1.00
2023-05-16T10:10:37.835Z,1.40
2023-05-16T10:11:36.591Z,1.20
2023-05-16T10:12:36.561Z,1.40
2023-05-16T10:13:36.556Z,1.30
2023-05-16T10:14:36.529Z,1.80
2023-05-16T10:15:36.538Z,1.70
2023-05-16T10:16:36.597Z,1.40
2023-05-16T10:17:36.587Z,1.60
2023-05-16T10:18:36.564Z,1.30
2023-05-16T10:19:36.493Z,1.20
2023-05-16T10:20:36.489Z,1.40
2023-05-16T10:21:36.480Z,1.20
2023-05-16T10:22:36.452Z,1.30
2023-05-16T10:23:36.478Z,1.50
2023-05-16T10:24:36.432Z,1.40
2023-05-16T10:25:36.428Z,1.00
2023-05-16T10:26:36.437Z,1.30
2023-05-16T10:27:36.496Z,1.20
2023-05-16T10:28:36.440Z,1.60
2023-05-16T10:29:46.578Z,1.20
2023-05-16T10:30:37.418Z,1.20
2023-05-16T10:31:36.426Z,1.30
2023-05-16T10:32:36.528Z,1.20
2023-05-16T10:33:36.366Z,1.40
2023-05-16T10:34:36.341Z,1.30
2023-05-16T10:35:36.379Z,1.10
2023-05-16T10:36:36.316Z,1.10
2023-05-16T10:37:36.322Z,0.90
2023-05-16T10:38:36.306Z,1.40
2023-05-16T10:39:36.317Z,1.40
2023-05-16T10:40:36.307Z,1.10
2023-05-16T10:41:36.267Z,1.40
2023-05-16T10:42:36.237Z,1.20
2023-05-16T10:43:36.296Z,1.30
2023-05-16T10:44:36.214Z,0.90
2023-05-16T10:45:36.223Z,1.30
2023-05-16T10:47:08.107Z,1.30
2023-05-16T10:47:36.189Z,1.00
2023-05-16T10:48:36.157Z,1.30
2023-05-16T10:49:36.144Z,1.30
2023-05-16T10:50:36.141Z,1.00
2023-05-16T10:51:36.209Z,1.30
2023-05-16T10:52:36.138Z,1.10
2023-05-16T10:53:36.110Z,1.10
2023-05-16T10:54:36.104Z,1.20
2023-05-16T10:55:36.123Z,1.20
2023-05-16T10:56:36.132Z,1.10
2023-05-16T10:57:36.076Z,0.80
2023-05-16T10:58:36.070Z,1.10
2023-05-16T10:59:36.046Z,1.20
2023-05-16T11:00:36.049Z,0.80
2023-05-16T11:01:36.122Z,0.80
2023-05-16T11:02:36.159Z,1.10
2023-05-16T11:03:36.133Z,0.90
2023-05-16T11:04:36.004Z,1.00
2023-05-16T11:05:35.994Z,1.10
2023-05-16T11:06:35.981Z,1.30
2023-05-16T11:07:35.994Z,1.50
2023-05-16T11:08:35.957Z,1.20
2023-05-16T11:09:35.945Z,1.10
2023-05-16T11:10:35.966Z,1.10
2023-05-16T11:11:35.945Z,0.90
2023-05-16T11:12:35.936Z,1.00
2023-05-16T11:13:35.904Z,1.10
2023-05-16T11:14:35.897Z,1.30
2023-05-16T11:15:35.913Z,0.90
2023-05-16T11:16:35.941Z,1.00
2023-05-16T11:17:37.030Z,0.80
2023-05-16T11:18:35.912Z,1.10
2023-05-16T11:19:35.841Z,0.90
2023-05-16T11:20:35.862Z,1.00
2023-05-16T11:21:35.822Z,0.80
2023-05-16T11:22:35.843Z,0.90
2023-05-16T11:23:35.817Z,1.20
2023-05-16T11:24:35.791Z,1.40
2023-05-16T11:25:35.786Z,1.20
2023-05-16T11:26:35.788Z,1.40
2023-05-16T11:27:35.805Z,0.80
2023-05-16T11:28:35.744Z,1.10
2023-05-16T11:29:35.760Z,1.00
2023-05-16T11:30:35.740Z,1.20
2023-05-16T11:31:35.761Z,1.00
2023-05-16T11:32:35.828Z,1.10
2023-05-16T11:33:35.735Z,1.00
2023-05-16T11:34:35.714Z,0.60
2023-05-16T11:35:35.683Z,1.00
2023-05-16T11:36:35.669Z,1.00
2023-05-16T11:37:35.657Z,1.00
2023-05-16T11:38:35.669Z,1.10
2023-05-16T11:39:35.741Z,1.10
2023-05-16T11:40:36.224Z,1.30
2023-05-16T11:41:35.628Z,1.10
2023-05-16T11:42:35.612Z,1.00
2023-05-16T11:43:35.681Z,1.30
2023-05-16T11:44:35.624Z,1.00
2023-05-16T11:45:35.618Z,1.10
2023-05-16T11:46:35.613Z,1.50
2023-05-16T11:47:35.662Z,1.10
2023-05-16T11:48:36.547Z,1.00
2023-05-16T11:49:36.558Z,1.00
2023-05-16T11:50:35.537Z,1.00
2023-05-16T11:51:35.537Z,0.70
2023-05-16T11:52:35.524Z,1.00
2023-05-16T11:53:35.632Z,0.90
2023-05-16T11:54:36.511Z,0.80
2023-05-16T11:56:36.507Z,1.00
2023-05-16T11:57:35.485Z,1.10
2023-05-16T11:58:35.456Z,0.90
2023-05-16T11:59:35.500Z,1.00
2023-05-16T12:00:35.439Z,1.10
2023-05-16T12:01:35.455Z,0.90
2023-05-16T12:02:35.495Z,1.10
2023-05-16T12:03:35.606Z,0.70
2023-05-16T12:04:35.545Z,1.00
2023-05-16T12:05:35.946Z,0.80
2023-05-16T12:06:35.377Z,1.00
2023-05-16T12:07:35.386Z,1.00
2023-05-16T12:08:35.375Z,1.00
2023-05-16T12:09:35.378Z,1.20
2023-05-16T12:10:35.360Z,0.60
2023-05-16T12:11:35.330Z,1.10
2023-05-16T12:12:35.324Z,0.90
2023-05-16T12:13:35.316Z,1.20
2023-05-16T12:14:35.309Z,0.90
2023-05-16T12:15:35.334Z,0.90
2023-05-16T12:16:35.328Z,1.20
2023-05-16T12:17:35.360Z,0.90
2023-05-16T12:18:35.396Z,1.00
2023-05-16T12:19:35.290Z,0.90
2023-05-16T12:20:35.257Z,1.40
2023-05-16T12:21:35.237Z,0.80
2023-05-16T12:22:35.243Z,1.30
2023-05-16T12:23:35.253Z,0.90
2023-05-16T12:24:35.206Z,1.00
2023-05-16T12:25:35.196Z,0.80
2023-05-16T12:26:35.176Z,1.20
2023-05-16T12:27:35.178Z,0.90
2023-05-16T12:28:35.203Z,0.60
2023-05-16T12:29:35.163Z,1.00
2023-05-16T12:30:35.159Z,1.10
2023-05-16T12:31:35.232Z,0.80
2023-05-16T12:32:35.203Z,0.90
2023-05-16T12:33:35.170Z,0.80
2023-05-16T12:34:35.139Z,0.80
2023-05-16T12:35:35.097Z,0.60
2023-05-16T12:36:35.191Z,0.70
2023-05-16T12:37:35.076Z,1.00
2023-05-16T12:38:35.056Z,1.40
2023-05-16T12:39:35.067Z,1.10
2023-05-16T12:40:36.083Z,0.80
2023-05-16T12:41:35.032Z,1.00
2023-05-16T12:42:35.061Z,0.90
2023-05-16T12:43:35.005Z,0.90
2023-05-16T12:44:34.994Z,1.10
2023-05-16T12:45:35.682Z,1.40
2023-05-16T12:46:36.062Z,0.90
2023-05-16T12:47:35.216Z,0.60
2023-05-16T12:48:34.985Z,0.90
2023-05-16T12:49:34.946Z,0.80
2023-05-16T12:50:34.973Z,0.90
2023-05-16T12:51:35.722Z,0.80
2023-05-16T12:52:35.918Z,1.00
2023-05-16T12:53:34.924Z,0.90
2023-05-16T12:54:34.907Z,1.00
2023-05-16T12:55:34.885Z,1.10
2023-05-16T12:56:34.900Z,0.90
2023-05-16T12:57:35.938Z,0.80
2023-05-16T12:58:35.918Z,0.80
2023-05-16T12:59:34.846Z,1.20
2023-05-16T13:00:34.868Z,0.90
2023-05-16T13:01:34.887Z,0.80
2023-05-16T13:02:34.903Z,1.00
2023-05-16T13:03:36.111Z,0.70
2023-05-16T13:04:34.795Z,0.90
2023-05-16T13:05:34.790Z,0.70
2023-05-16T13:06:55.647Z,0.80
2023-05-16T13:07:36.762Z,0.80
2023-05-16T13:08:34.768Z,1.00
2023-05-16T13:09:34.762Z,0.90